Terminal Aerodrome Forecast
Issued by NWS Northern Indiana

Home | Current Version | Previous Version | Text Only | Print | Product List | Glossary On
Versions: 1 2 3 4 5 6 7 8 9 10 11 12 13 14 15 16 17
847
FTUS43 KIWX 201727
TAFFWA
TAF
KFWA 201727Z 2018/2118 26012G19KT P6SM SCT050
     FM202300 27007KT P6SM VCTS BKN050CB
     FM210300 VRB04KT P6SM SCT100=

USA.gov is the U.S. government's official web portal to all federal, state and local government web resources and services.